• Join FlightAware (Why Join?)
  • Login
  • US Flag 
09:25AM EDT


 

Airport Tracker/Info


-or-


 

Live Flight TrackerFlight Track Log ✈ B-2086 ✈ 13-Apr-2013 ✈ ZBAA / PEK - EDDF / FRA

Flight Track Log - Related Links

Times and Time Zones

All times are in EDT time to prevent confusion due to time zone crossing. See the B-2086 flight status page for this flight to view local times or setup timezone preferences in your user account.

Time Position Orientation Groundspeed Altitude Reporting Facility
EDT Latitude Longitude Course Direction KTS MPH feet Rate Location/Type
03:12PM 40.4392 116.1805 319° Northwest  Level Estimated
03:13PM 40.5287 116.0788 319° Northwest  Level Estimated
03:14PM 40.6181 115.9768 319° Northwest  Level Estimated
03:15PM 40.7075 115.8745 319° Northwest  Level Estimated
03:16PM 40.7968 115.7720 319° Northwest  Level Estimated
03:17PM 40.8859 115.6692 319° Northwest  Level Estimated
03:18PM 40.9750 115.5661 319° Northwest  Level Estimated
03:19PM 41.0640 115.4628 319° Northwest  Level Estimated
03:20PM 41.1529 115.3592 319° Northwest  Level Estimated
03:21PM 41.2417 115.2552 319° Northwest  Level Estimated
03:22PM 41.3304 115.1510 319° Northwest  Level Estimated
03:23PM 41.4191 115.0466 319° Northwest  Level Estimated
03:24PM 41.5076 114.9418 318° Northwest  Level Estimated
03:25PM 41.5960 114.8367 318° Northwest  Level Estimated
03:26PM 41.6844 114.7314 318° Northwest  Level Estimated
03:27PM 41.7726 114.6258 318° Northwest  Level Estimated
03:28PM 41.8607 114.5199 318° Northwest  Level Estimated
03:29PM 41.9488 114.4137 318° Northwest  Level Estimated
03:30PM 42.0367 114.3071 318° Northwest  Level Estimated
03:31PM 42.1246 114.2003 318° Northwest  Level Estimated
03:32PM 42.2123 114.0932 318° Northwest  Level Estimated
03:33PM 42.3000 113.9858 318° Northwest  Level Estimated
03:34PM 42.3875 113.8782 318° Northwest  Level Estimated
03:35PM 42.4750 113.7701 318° Northwest  Level Estimated
03:36PM 42.5623 113.6618 318° Northwest  Level Estimated
03:37PM 42.6496 113.5533 318° Northwest  Level Estimated
03:38PM 42.7367 113.4443 317° Northwest  Level Estimated
03:39PM 42.8237 113.3351 317° Northwest  Level Estimated
03:40PM 42.9107 113.2256 317° Northwest  Level Estimated
03:41PM 42.9975 113.1158 317° Northwest  Level Estimated
03:42PM 43.0842 113.0056 317° Northwest  Level Estimated
03:43PM 43.1708 112.8952 317° Northwest  Level Estimated
03:44PM 43.2574 112.7844 317° Northwest  Level Estimated
03:45PM 43.3438 112.6733 317° Northwest  Level Estimated
03:46PM 43.4300 112.5619 317° Northwest  Level Estimated
03:47PM 43.5162 112.4502 317° Northwest  Level Estimated
03:48PM 43.6023 112.3382 317° Northwest  Level Estimated
03:49PM 43.6883 112.2259 317° Northwest  Level Estimated
03:50PM 43.7741 112.1132 317° Northwest  Level Estimated
03:51PM 43.8599 112.0002 316° Northwest  Level Estimated
03:52PM 43.9455 111.8868 316° Northwest  Level Estimated
03:53PM 44.0310 111.7732 316° Northwest  Level Estimated
03:54PM 44.1165 111.6592 316° Northwest  Level Estimated
03:55PM 44.2017 111.5449 316° Northwest  Level Estimated
03:56PM 44.2869 111.4303 316° Northwest  Level Estimated
03:57PM 44.3720 111.3153 316° Northwest  Level Estimated
03:58PM 44.4569 111.2000 316° Northwest  Level Estimated
03:59PM 44.5418 111.0843 316° Northwest  Level Estimated
04:00PM 44.6265 110.9684 316° Northwest  Level Estimated
04:01PM 44.7111 110.8520 316° Northwest  Level Estimated
04:02PM 44.7956 110.7354 316° Northwest  Level Estimated
04:03PM 44.8799 110.6184 316° Northwest  Level Estimated
04:04PM 44.9642 110.5010 315° West  Level Estimated
04:05PM 45.0483 110.3833 315° West  Level Estimated
04:06PM 45.1323 110.2653 315° West  Level Estimated
04:07PM 45.2162 110.1469 315° West  Level Estimated
04:08PM 45.2999 110.0282 315° West  Level Estimated
04:09PM 45.3835 109.9091 315° West  Level Estimated
04:10PM 45.4671 109.7896 315° West  Level Estimated
04:11PM 45.5504 109.6699 315° West  Level Estimated
04:12PM 45.6337 109.5497 315° West  Level Estimated
04:13PM 45.7168 109.4292 315° West  Level Estimated
04:14PM 45.7998 109.3083 315° West  Level Estimated
04:15PM 45.8827 109.1871 315° West  Level Estimated
04:16PM 45.9655 109.0655 314° West  Level Estimated
04:17PM 46.0481 108.9436 314° West  Level Estimated
04:18PM 46.1306 108.8212 314° West  Level Estimated
04:19PM 46.2129 108.6986 314° West  Level Estimated
04:20PM 46.2952 108.5755 314° West  Level Estimated
04:21PM 46.3773 108.4521 314° West  Level Estimated
04:22PM 46.4592 108.3283 314° West  Level Estimated
04:23PM 46.5410 108.2041 314° West  Level Estimated
04:24PM 46.6227 108.0796 314° West  Level Estimated
04:25PM 46.7043 107.9547 314° West  Level Estimated
04:26PM 46.7857 107.8294 314° West  Level Estimated
04:27PM 46.8670 107.7037 313° West  Level Estimated
04:28PM 46.9481 107.5777 313° West  Level Estimated
04:29PM 47.0291 107.4512 313° West  Level Estimated
04:30PM 47.1100 107.3244 313° West  Level Estimated
04:31PM 47.1907 107.1972 313° West  Level Estimated
04:32PM 47.2713 107.0696 313° West  Level Estimated
04:33PM 47.3518 106.9416 313° West  Level Estimated
04:34PM 47.4321 106.8133 313° West  Level Estimated
04:35PM 47.5122 106.6845 313° West  Level Estimated
04:36PM 47.5922 106.5553 313° West  Level Estimated
04:37PM 47.6721 106.4258 313° West  Level Estimated
04:38PM 47.7518 106.2958 312° West  Level Estimated
04:39PM 47.8314 106.1655 312° West  Level Estimated
04:40PM 47.9108 106.0347 312° West  Level Estimated
04:41PM 47.9901 105.9036 312° West  Level Estimated
04:42PM 48.0692 105.7720 312° West  Level Estimated
04:43PM 48.1482 105.6401 312° West  Level Estimated
04:44PM 48.2270 105.5077 312° West  Level Estimated
04:45PM 48.3057 105.3749 312° West  Level Estimated
04:46PM 48.3842 105.2418 312° West  Level Estimated
04:47PM 48.4626 105.1082 312° West  Level Estimated
04:48PM 48.5408 104.9742 311° West  Level Estimated
04:49PM 48.6188 104.8398 311° West  Level Estimated
04:50PM 48.6967 104.7049 311° West  Level Estimated
04:51PM 48.7745 104.5697 311° West  Level Estimated
04:52PM 48.8520 104.4340 311° West  Level Estimated
04:53PM 48.9295 104.2979 311° West  Level Estimated
04:54PM 49.0067 104.1614 311° West  Level Estimated
04:55PM 49.0838 104.0245 311° West  Level Estimated
04:56PM 49.1608 103.8871 311° West  Level Estimated
04:57PM 49.2375 103.7493 311° West  Level Estimated
04:58PM 49.3141 103.6111 310° West  Level Estimated
04:59PM 49.3906 103.4725 310° West  Level Estimated
05:00PM 49.4669 103.3334 310° West  Level Estimated
05:01PM 49.5430 103.1939 310° West  Level Estimated
05:02PM 49.6189 103.0539 310° West  Level Estimated
05:03PM 49.6947 102.9135 310° West  Level Estimated
05:04PM 49.7703 102.7727 310° West  Level Estimated
05:05PM 49.8457 102.6314 310° West  Level Estimated
05:06PM 49.9210 102.4897 310° West  Level Estimated
05:07PM 49.9960 102.3476 309° West  Level Estimated
05:08PM 50.0709 102.2050 309° West  Level Estimated
05:09PM 50.1457 102.0620 309° West  Level Estimated
05:10PM 50.2202 101.9185 309° West  Level Estimated
05:11PM 50.2946 101.7746 309° West  Level Estimated
05:12PM 50.3688 101.6302 309° West  Level Estimated
05:13PM 50.4428 101.4853 309° West  Level Estimated
05:14PM 50.5167 101.3400 309° West  Level Estimated
05:15PM 50.5903 101.1943 309° West  Level Estimated
05:16PM 50.6638 101.0481 308° West  Level Estimated
05:17PM 50.7371 100.9015 308° West  Level Estimated
05:18PM 50.8102 100.7543 308° West  Level Estimated
05:19PM 50.8832 100.6068 308° West  Level Estimated
05:20PM 50.9559 100.4587 308° West  Level Estimated
05:21PM 51.0285 100.3102 308° West  Level Estimated
05:22PM 51.1008 100.1612 308° West  Level Estimated
05:23PM 51.1730 100.0118 308° West  Level Estimated
05:24PM 51.2450 99.8619 308° West  Level Estimated
05:25PM 51.3167 99.7115 307° West  Level Estimated
05:26PM 51.3884 99.5607 307° West  Level Estimated
05:27PM 51.4598 99.4094 307° West  Level Estimated
05:28PM 51.5310 99.2576 307° West  Level Estimated
05:29PM 51.6020 99.1053 307° West  Level Estimated
05:30PM 51.6728 98.9526 307° West  Level Estimated
05:31PM 51.7434 98.7994 307° West  Level Estimated
05:32PM 51.8138 98.6457 307° West  Level Estimated
05:33PM 51.8840 98.4915 306° West  Level Estimated
05:34PM 51.9540 98.3369 306° West  Level Estimated
05:35PM 52.0238 98.1817 306° West  Level Estimated
05:36PM 52.0934 98.0261 306° West  Level Estimated
05:37PM 52.1628 97.8700 306° West  Level Estimated
05:38PM 52.2320 97.7134 306° West  Level Estimated
05:39PM 52.3010 97.5563 306° West  Level Estimated
05:40PM 52.3698 97.3988 306° West  Level Estimated
05:41PM 52.4383 97.2407 305° West  Level Estimated
05:42PM 52.5067 97.0821 305° West  Level Estimated
05:43PM 52.5748 96.9231 305° West  Level Estimated
05:44PM 52.6427 96.7635 305° West  Level Estimated
05:45PM 52.7105 96.6035 305° West  Level Estimated
05:46PM 52.7780 96.4430 305° West  Level Estimated
05:47PM 52.8452 96.2819 305° West  Level Estimated
05:48PM 52.9123 96.1204 305° West  Level Estimated
05:49PM 52.9791 95.9584 304° West  Level Estimated
05:50PM 53.0458 95.7958 304° West  Level Estimated
05:51PM 53.1122 95.6328 304° West  Level Estimated
05:52PM 53.1783 95.4693 304° West  Level Estimated
05:53PM 53.2443 95.3052 304° West  Level Estimated
05:54PM 53.3100 95.1407 304° West  Level Estimated
05:55PM 53.3755 94.9756 304° West  Level Estimated
05:56PM 53.4408 94.8101 304° West  Level Estimated
05:57PM 53.5058 94.6440 303° West  Level Estimated
05:58PM 53.5706 94.4774 303° West  Level Estimated
05:59PM 53.6352 94.3103 303° West  Level Estimated
06:00PM 53.6995 94.1427 303° West  Level Estimated
06:01PM 53.7636 93.9746 303° West  Level Estimated
06:02PM 53.8275 93.8060 303° West  Level Estimated
06:03PM 53.8911 93.6368 303° West  Level Estimated
06:04PM 53.9545 93.4672 302° West  Level Estimated
06:05PM 54.0177 93.2970 302° West  Level Estimated
06:06PM 54.0806 93.1263 302° West  Level Estimated
06:07PM 54.1433 92.9551 302° West  Level Estimated
06:08PM 54.2057 92.7834 302° West  Level Estimated
06:09PM 54.2679 92.6111 302° West  Level Estimated
06:10PM 54.3298 92.4384 302° West  Level Estimated
06:11PM 54.3915 92.2651 301° West  Level Estimated
06:12PM 54.4530 92.0913 301° West  Level Estimated
06:13PM 54.5141 91.9169 301° West  Level Estimated
06:14PM 54.5751 91.7421 301° West  Level Estimated
06:15PM 54.6358 91.5667 301° West  Level Estimated
06:16PM 54.6962 91.3908 301° West  Level Estimated
06:17PM 54.7564 91.2144 301° West  Level Estimated
06:18PM 54.8163 91.0375 300° West  Level Estimated
06:19PM 54.8760 90.8600 300° West  Level Estimated
06:20PM 54.9354 90.6820 300° West  Level Estimated
06:21PM 54.9945 90.5035 300° West  Level Estimated
06:22PM 55.0534 90.3245 300° West  Level Estimated
06:23PM 55.1120 90.1449 300° West  Level Estimated
06:24PM 55.1704 89.9648 300° West  Level Estimated
06:25PM 55.2285 89.7842 299° West  Level Estimated
06:26PM 55.2863 89.6030 299° West  Level Estimated
06:27PM 55.3438 89.4213 299° West  Level Estimated
06:28PM 55.4011 89.2391 299° West  Level Estimated
06:28PM 53.7630 91.3440 299° West 401 461 32,000  Level FlightAware
06:29PM 55.4581 89.0564 299° West  Level Estimated
06:29PM 53.8010 91.2550 306° West 401 461 32,000  Level FlightAware
06:30PM 53.8450 91.1480 305° West 401 461 32,000  Level FlightAware
06:30PM 53.8720 91.0820 305° West 401 461 32,000  Level FlightAware
06:31PM 53.9270 90.9550 306° West 32,000  Level FlightAware
06:32PM 53.9700 90.8520 305° West 401 461 32,000  Level FlightAware
06:32PM 54.0230 90.7250 305° West 402 463 32,000  Level FlightAware
06:33PM 54.0800 90.5870 305° West 402 463 32,000  Level FlightAware
06:34PM 54.1170 90.4960 305° West 401 461 32,000  Level FlightAware
06:35PM 54.1810 90.3390 305° West 401 461 32,000  Level FlightAware
06:36PM 54.2280 90.2240 305° West 401 461 32,000  Level FlightAware
06:37PM 54.2870 90.0780 305° West 402 463 32,000  Level FlightAware
06:37PM 54.3310 89.9670 304° West 402 463 32,000  Level FlightAware
06:40PM 54.4631 89.5739 300° West  Level Estimated
06:41PM 54.5218 89.3970 300° West  Level Estimated
06:41PM 54.5820 89.3360 300° West 406 467 32,000  Level FlightAware
06:42PM 54.6230 89.2330 305° West 406 467 32,000  Level FlightAware
06:43PM 54.6700 89.1100 303° West 405 466 32,000  Level FlightAware
06:43PM 54.7120 89.0020 304° West 405 466 32,000  Level FlightAware
06:44PM 54.7590 88.8820 304° West 405 466 32,000  Level FlightAware
06:45PM 54.7860 88.8110 303° West 406 467 32,000  Level FlightAware
06:47PM 54.8998 88.4546 299° West  Level Estimated
06:47PM 54.9400 88.4070 299° West 404 465 32,000  Level FlightAware
06:48PM 54.9890 88.2770 303° West 405 466 32,000  Level FlightAware
06:48PM 55.0300 88.1690 304° West 405 466 32,000  Level FlightAware
06:49PM 55.0710 88.0590 303° West 405 466 32,000  Level FlightAware
06:50PM 55.1150 87.9420 303° West 405 466 32,000  Level FlightAware
06:51PM 55.1580 87.8250 303° West 405 466 32,000  Level FlightAware
06:51PM 55.1980 87.7160 303° West 403 464 32,000  Level FlightAware
06:52PM 55.2430 87.5940 303° West 403 464 32,000  Level FlightAware
06:53PM 55.2840 87.4820 303° West 404 465 32,000  Level FlightAware
06:53PM 55.3270 87.3610 302° West 402 463 32,000  Level FlightAware
06:54PM 55.3670 87.2510 303° West 402 463 32,000  Level FlightAware
06:55PM 55.4130 87.1240 303° West 402 463 32,000  Level FlightAware
06:55PM 55.4520 87.0140 302° West 402 463 32,000  Level FlightAware
06:56PM 55.4910 86.9030 302° West 403 464 32,000  Level FlightAware
06:57PM 55.5350 86.7810 303° West 404 465 32,000  Level FlightAware
06:58PM 55.5750 86.6660 302° West 404 465 32,000  Level FlightAware
06:58PM 55.6200 86.5390 302° West 405 466 32,000  Level FlightAware
06:59PM 55.6590 86.4270 302° West 405 466 32,000  Level FlightAware
07:00PM 55.6980 86.3150 302° West 405 466 32,000  Level FlightAware
07:00PM 55.7420 86.1880 302° West 405 466 32,000  Level FlightAware
07:01PM 55.7810 86.0730 301° West 405 466 32,000  Level FlightAware
07:02PM 55.8240 85.9490 302° West 405 466 32,000  Level FlightAware
07:02PM 55.8640 85.8320 301° West 405 466 32,000  Level FlightAware
07:03PM 55.9010 85.7220 301° West 406 467 32,000  Level FlightAware
07:04PM 55.9430 85.5970 301° West 406 467 32,000  Level FlightAware
07:05PM 55.9840 85.4710 300° West 406 467 32,000  Level FlightAware
07:05PM 56.0260 85.3400 300° West 407 468 32,000  Level FlightAware
07:06PM 56.0630 85.2240 300° West 407 468 32,000  Level FlightAware
07:07PM 56.1000 85.1070 300° West 407 468 32,000  Level FlightAware
07:07PM 56.1420 84.9760 300° West 407 468 32,000  Level FlightAware
07:08PM 56.1790 84.8580 299° West 409 471 32,000  Level FlightAware
07:09PM 56.2160 84.7400 299° West 409 471 32,000  Level FlightAware
07:09PM 56.2570 84.6070 299° West 410 472 32,000  Level FlightAware
07:10PM 56.2940 84.4890 300° West 409 471 32,000  Level FlightAware
07:11PM 56.3350 84.3550 299° West 409 471 32,000  Level FlightAware
07:12PM 56.3720 84.2370 300° West 409 471 32,000  Level FlightAware
07:12PM 56.4120 84.1040 299° West 409 471 32,000  Level FlightAware
07:13PM 56.4490 83.9830 299° West 410 472 32,000  Level FlightAware
07:14PM 56.4840 83.8640 298° West 409 471 32,000  Level FlightAware
07:14PM 56.5250 83.7290 299° West 410 472 32,000  Level FlightAware
07:15PM 56.5600 83.6110 298° West 408 470 32,000  Level FlightAware
07:16PM 56.6000 83.4760 298° West 408 470 32,000  Level FlightAware
07:16PM 56.6370 83.3530 299° West 409 471 32,000  Level FlightAware
07:17PM 56.6720 83.2340 298° West 409 471 32,000  Level FlightAware
07:18PM 56.7110 83.0990 298° West 409 471 32,000  Level FlightAware
07:19PM 56.7460 82.9790 298° West 409 471 32,000  Level FlightAware
07:19PM 56.7830 82.8510 298° West 407 468 32,000  Level FlightAware
07:20PM 56.8210 82.7190 298° West 406 467 32,000  Level FlightAware
07:21PM 56.8600 82.5830 298° West 406 467 32,000  Level FlightAware
07:21PM 56.8940 82.4610 297° West 406 467 32,000  Level FlightAware
07:22PM 56.9280 82.3410 297° West 407 468 32,000  Level FlightAware
07:23PM 56.9670 82.2050 298° West 406 467 32,000  Level FlightAware
07:23PM 57.0020 82.0810 297° West 406 467 32,000  Level FlightAware
07:24PM 57.0430 81.9480 300° West 406 467 32,000  Level FlightAware
07:25PM 57.0810 81.8300 301° West 405 466 32,000  Level FlightAware
07:26PM 57.1180 81.7140 300° West 404 465 32,000  Level FlightAware
07:26PM 57.1610 81.5790 300° West 404 465 32,000  Level FlightAware
07:27PM 57.1980 81.4600 300° West 403 464 32,000  Level FlightAware
07:28PM 57.2400 81.3280 300° West 403 464 32,000  Level FlightAware
07:28PM 57.2770 81.2090 300° West 404 465 32,000  Level FlightAware
07:29PM 57.3140 81.0900 300° West 403 464 32,000  Level FlightAware
07:30PM 57.3550 80.9560 300° West 404 465 32,000  Level FlightAware
07:30PM 57.3930 80.8350 300° West 404 465 32,000  Level FlightAware
07:31PM 57.4320 80.7060 299° West 404 465 32,000  Level FlightAware
07:32PM 57.4700 80.5820 300° West 405 466 32,000  Level FlightAware
07:33PM 57.5060 80.4610 299° West 404 465 32,000  Level FlightAware
07:33PM 57.5480 80.3240 300° West 404 465 32,000  Level FlightAware
07:34PM 57.5830 80.2060 299° West 405 466 32,000  Level FlightAware
07:35PM 57.6240 80.0680 299° West 404 465 32,000  Level FlightAware
07:35PM 57.6610 79.9450 299° West 405 466 32,000  Level FlightAware
07:36PM 57.6950 79.8280 299° West 405 466 32,000  Level FlightAware
07:37PM 57.7360 79.6870 299° West 405 466 32,000  Level FlightAware
07:37PM 57.7620 79.5960 298° West 404 465 32,000  Level FlightAware
07:38PM 57.8050 79.4460 298° West 404 465 32,000  Level FlightAware
07:39PM 57.8340 79.3450 298° West 405 466 32,000  Level FlightAware
07:40PM 57.8780 79.1880 298° West 405 466 32,000  Level FlightAware
07:40PM 57.9200 79.0410 298° West 404 465 32,000  Level FlightAware
07:41PM 57.9550 78.9150 298° West 405 466 32,000  Level FlightAware
07:42PM 57.9850 78.8020 297° West 405 466 32,000  Level FlightAware
07:42PM 58.0140 78.6950 297° West 405 466 32,000  Level FlightAware
07:43PM 58.0430 78.5880 297° West 405 466 32,000  Level FlightAware
07:44PM 58.0790 78.4540 297° West 405 466 32,000  Level FlightAware
07:44PM 58.1080 78.3460 297° West 405 466 32,000  Level FlightAware
07:45PM 58.1370 78.2390 297° West 405 466 32,000  Level FlightAware
07:46PM 58.1660 78.1310 297° West 405 466 32,000  Level FlightAware
07:46PM 58.1950 78.0240 297° West 405 466 32,000  Level FlightAware
07:47PM 58.2310 77.8890 297° West 405 466 32,000  Level FlightAware
07:48PM 58.2600 77.7810 297° West 405 466 32,000  Level FlightAware
07:49PM 58.2890 77.6730 297° West 405 466 32,000  Level FlightAware
07:49PM 58.3180 77.5650 297° West 405 466 32,000  Level FlightAware
07:50PM 58.3460 77.4570 296° West 405 466 32,000  Level FlightAware
07:51PM 58.3750 77.3490 297° West 405 466 32,000  Level FlightAware
07:53PM 58.4469 76.9423 289° West  Level Estimated
07:54PM 58.4842 76.7276 288° West  Level Estimated
07:55PM 58.5211 76.5125 288° West  Level Estimated
07:56PM 58.5577 76.2969 288° West  Level Estimated
07:57PM 58.5939 76.0808 288° West  Level Estimated
07:58PM 58.6298 75.8643 288° West  Level Estimated
07:59PM 58.6652 75.6474 288° West  Level Estimated
08:00PM 58.7004 75.4300 287° West  Level Estimated
08:01PM 58.7351 75.2122 287° West  Level Estimated
08:02PM 58.7695 74.9939 287° West  Level Estimated
08:03PM 58.8036 74.7753 287° West  Level Estimated
08:04PM 58.8372 74.5562 287° West  Level Estimated
08:05PM 58.8705 74.3366 286° West  Level Estimated
08:05PM 59.3150 74.5530 286° West 399 459 32,000  Level FlightAware
08:07PM 59.3710 74.1880 287° West 384 442 32,000  Level FlightAware
08:07PM 59.3860 74.0560 283° West 384 442 32,000  Level FlightAware
08:08PM 59.4060 73.8850 283° West 386 444 32,000  Level FlightAware
08:09PM 59.4220 73.7470 283° West 385 443 32,000  Level FlightAware
08:10PM 59.4380 73.6100 283° West 385 443 32,000  Level FlightAware
08:10PM 59.4560 73.4470 282° West 386 444 32,000  Level FlightAware
08:11PM 59.4720 73.3070 283° West 386 444 32,000  Level FlightAware
08:12PM 59.4870 73.1690 282° West 387 445 32,000  Level FlightAware
08:12PM 59.5030 73.0170 282° West 385 443 32,000  Level FlightAware
08:13PM 59.5180 72.8780 282° West 385 443 32,000  Level FlightAware
08:14PM 59.5310 72.7530 282° West 385 443 32,000  Level FlightAware
08:15PM 59.5490 72.5860 282° West 386 444 32,000  Level FlightAware
08:15PM 59.5680 72.4030 282° West 385 443 32,000  Level FlightAware
08:16PM 59.5840 72.2490 282° West 384 442 32,000  Level FlightAware
08:17PM 59.5980 72.1060 281° West 385 443 32,000  Level FlightAware
08:18PM 59.6110 71.9750 281° West 386 444 32,000  Level FlightAware
08:18PM 59.6260 71.8220 281° West 386 444 32,000  Level FlightAware
08:19PM 59.6380 71.7080 282° West 386 444 32,000  Level FlightAware
08:20PM 59.6530 71.5550 281° West 386 444 32,000  Level FlightAware
08:20PM 59.6640 71.4400 281° West 386 444 32,000  Level FlightAware
08:21PM 59.6800 71.2580 280° West 394 453 32,000  Level FlightAware
08:23PM 59.7190 70.8320 280° West 398 458 32,000  Level FlightAware
08:24PM 59.7340 70.6710 281° West 399 459 32,000  Level FlightAware
08:24PM 59.7430 70.5650 280° West 401 461 32,000  Level FlightAware
08:25PM 59.7550 70.4140 279° West 401 461 32,000  Level FlightAware
08:26PM 59.7680 70.2590 280° West 401 461 32,000  Level FlightAware
08:26PM 59.7770 70.1350 278° West 401 461 32,000  Level FlightAware
08:27PM 59.7880 70.0490 284° West 32,000  Level FlightAware
08:28PM 59.7940 69.9690 279° West 396 456 32,000  Level FlightAware
08:28PM 59.8180 69.6730 279° West 32,000  Level FlightAware
08:29PM 59.8280 69.5570 280° West 401 461 32,000  Level FlightAware
08:30PM 59.8280 69.5550 270° West 32,000  Level FlightAware
08:30PM 59.8280 69.5570 90° East 404 465 32,000  Level FlightAware
08:31PM 59.8340 69.4720 278° West 406 467 32,000  Level FlightAware
08:32PM 59.8790 68.9020 279° West 409 471 32,000  Level FlightAware
08:33PM 59.8880 68.7760 278° West 409 471 32,000  Level FlightAware
08:33PM 59.8960 68.6490 277° West 409 471 32,000  Level FlightAware
08:34PM 59.9050 68.5220 278° West 409 471 32,000  Level FlightAware
08:35PM 59.8900 68.7460 98° East 412 474 32,000  Level FlightAware
08:36PM 59.8860 68.8000 98° East 414 476 32,000  Level FlightAware
08:36PM 59.9490 67.9050 278° West 414 476 32,000  Level FlightAware
08:37PM 59.9610 67.7400 278° West 414 476 32,000  Level FlightAware
08:38PM 59.9520 67.8630 98° East 415 478 32,000  Level FlightAware
08:39PM 59.9820 67.4040 278° West 415 478 32,000  Level FlightAware
08:40PM 59.9900 67.2750 277° West 415 478 32,000  Level FlightAware
08:40PM 59.9980 67.1450 277° West 415 478 32,000  Level FlightAware
08:41PM 60.0070 66.9830 276° West 415 478 32,000  Level FlightAware
08:42PM 60.0150 66.8530 277° West 415 478 32,000  Level FlightAware
08:43PM 60.0230 66.7240 277° West 415 478 32,000  Level FlightAware
08:43PM 60.0470 66.2880 276° West 424 488 32,000  Level FlightAware
08:44PM 60.0550 66.1320 276° West 423 487 32,000  Level FlightAware
08:45PM 60.0600 66.0390 276° West 423 487 32,000  Level FlightAware
08:46PM 60.0660 65.9010 275° West 422 486 32,000  Level FlightAware
08:46PM 60.0720 65.7680 275° West 422 486 32,000  Level FlightAware
08:47PM 60.0790 65.6020 275° West 422 486 32,000  Level FlightAware
08:48PM 60.0850 65.4700 275° West 422 486 32,000  Level FlightAware
08:48PM 60.0910 65.3370 275° West 422 486 32,000  Level FlightAware
08:49PM 60.1060 65.0740 277° West 421 484 32,000  Level FlightAware
08:50PM 60.1120 64.9420 275° West 421 484 32,000  Level FlightAware
08:50PM 60.1180 64.8100 275° West 421 484 32,000  Level FlightAware
08:51PM 60.1240 64.6770 275° West 421 484 32,000  Level FlightAware
08:52PM 60.1290 64.5450 274° West 421 484 32,000  Level FlightAware
08:53PM 60.1360 64.3790 275° West 421 484 32,000  Level FlightAware
08:53PM 60.1420 64.2470 275° West 421 484 32,000  Level FlightAware
08:54PM 60.1480 64.1140 275° West 421 484 32,000  Level FlightAware
08:55PM 60.1540 63.9820 275° West 421 484 32,000  Level FlightAware
08:55PM 60.1600 63.8490 275° West 421 484 32,000  Level FlightAware
08:56PM 60.1670 63.6830 275° West 421 484 32,000  Level FlightAware
08:57PM 60.1730 63.5510 275° West 421 484 32,000  Level FlightAware
08:57PM 60.1780 63.4180 274° West 421 484 32,000  Level FlightAware
08:58PM 60.1840 63.2850 275° West 421 484 32,000  Level FlightAware
09:01PM 60.2147 62.7169 276° West  Level Estimated
09:02PM 60.2267 62.4799 276° West  Level Estimated
09:03PM 60.2384 62.2428 276° West  Level Estimated
09:04PM 60.2496 62.0054 276° West  Level Estimated
09:05PM 60.2604 61.7679 275° West  Level Estimated
09:06PM 60.2707 61.5303 275° West  Level Estimated
09:07PM 60.2807 61.2925 275° West  Level Estimated
09:08PM 60.2902 61.0546 275° West  Level Estimated
09:09PM 60.2993 60.8165 275° West  Level Estimated
09:09PM 60.1290 60.3800 275° West 427 491 32,000  Level FlightAware
09:09PM 60.1270 60.2310 269° West 427 491 32,000  Level FlightAware
09:10PM 60.1240 60.0490 268° West 428 493 32,000  Level FlightAware
09:11PM 60.1210 59.8550 268° West 429 494 32,000  Level FlightAware
09:11PM 60.1180 59.7190 268° West 429 494 32,000  Level FlightAware
09:12PM 60.1150 59.5510 268° West 429 494 32,000  Level FlightAware
09:13PM 60.1120 59.4240 267° West 429 494 32,000  Level FlightAware
09:14PM 60.1070 59.1600 268° West 430 495 32,000  Level FlightAware
09:15PM 60.1020 58.9850 267° West 431 496 32,000  Level FlightAware
09:15PM 60.0990 58.8310 268° West 431 496 32,000  Level FlightAware
09:16PM 60.0940 58.6560 267° West 434 499 32,000  Level FlightAware
09:17PM 60.0900 58.4940 267° West 435 501 32,000  Level FlightAware
09:17PM 60.0860 58.3610 267° West 434 499 32,000  Level FlightAware
09:18PM 60.0790 58.1580 266° West 435 501 32,000  Level FlightAware
09:19PM 60.0750 58.0300 266° West 436 502 32,000  Level FlightAware
09:19PM 60.0680 57.8410 266° West 437 503 32,000  Level FlightAware
09:20PM 60.0590 57.5790 266° West 438 504 32,000  Level FlightAware
09:21PM 60.0540 57.4350 266° West 438 504 32,000  Level FlightAware
09:22PM 60.0480 57.2770 266° West 436 502 32,000  Level FlightAware
09:22PM 60.0410 57.0960 266° West 435 501 32,000  Level FlightAware
09:23PM 60.0350 56.9390 266° West 435 501 32,000  Level FlightAware
09:24PM 60.0260 56.7120 266° West 436 502 32,000  Level FlightAware
09:25PM 60.0180 56.5300 265° West 436 502 32,000  Level FlightAware
09:25PM 60.0120 56.3790 266° West 437 503 32,000 720 Level FlightAware
09:26PM 60.0030 56.1810 265° West 437 503 33,100 1,320 Climbing FlightAware
09:27PM 59.9960 56.0280 265° West 438 504 34,000 600 Climbing FlightAware
09:28PM 59.9860 55.8270 264° West 438 504 34,000  Level FlightAware
09:29PM 59.9760 55.6310 264° West 439 505 34,000  Level FlightAware
09:29PM 59.9710 55.5120 265° West 438 504 34,000  Level FlightAware
09:30PM 59.9590 55.3000 264° West 438 504 34,000  Level FlightAware
09:31PM 59.9510 55.1380 264° West 439 505 34,000  Level FlightAware
09:31PM 59.9410 54.9640 264° West 439 505 34,000  Level FlightAware
09:32PM 59.9310 54.7850 264° West 439 505 34,000  Level FlightAware
09:33PM 59.9220 54.6170 264° West 439 505 34,000  Level FlightAware
09:33PM 59.9140 54.4750 264° West 440 506 34,000  Level FlightAware
09:34PM 59.9020 54.2830 263° West 440 506 34,000  Level FlightAware
09:35PM 59.8930 54.1320 263° West 440 506 34,000  Level FlightAware
09:35PM 59.8830 53.9680 263° West 440 506 34,000  Level FlightAware
09:36PM 59.8730 53.8200 262° West 441 507 34,000  Level FlightAware
09:37PM 59.8580 53.5840 263° West 441 507 34,000  Level FlightAware
09:38PM 59.8450 53.3870 263° West 442 509 34,000  Level FlightAware
09:39PM 59.8330 53.2110 262° West 442 509 34,000  Level FlightAware
09:39PM 59.8220 53.0460 263° West 443 510 34,000  Level FlightAware
09:40PM 59.8100 52.8860 262° West 444 511 34,000  Level FlightAware
09:41PM 59.7980 52.7210 262° West 444 511 34,000  Level FlightAware
09:41PM 59.7840 52.5240 262° West 444 511 34,000  Level FlightAware
09:42PM 59.7730 52.3850 261° West 444 511 34,000  Level FlightAware
09:43PM 59.7590 52.1940 262° West 444 511 34,000  Level FlightAware
09:44PM 59.7440 52.0040 261° West 444 511 34,000  Level FlightAware
09:44PM 59.7240 51.8230 258° West 443 510 34,000  Level FlightAware
09:45PM 59.7070 51.6500 259° West 443 510 34,000  Level FlightAware
09:46PM 59.6890 51.4840 258° West 443 510 34,000  Level FlightAware
09:47PM 59.6650 51.2470 259° West 444 511 34,000  Level FlightAware
09:47PM 59.6510 51.1150 258° West 445 512 34,000  Level FlightAware
09:48PM 59.6340 50.9560 258° West 445 512 34,000  Level FlightAware
09:49PM 59.6150 50.7820 258° West 447 514 34,000  Level FlightAware
09:49PM 59.5940 50.5940 258° West 448 516 34,000  Level FlightAware
09:50PM 59.5750 50.4240 258° West 448 516 34,000  Level FlightAware
09:51PM 59.5600 50.2950 257° West 448 516 34,000  Level FlightAware
09:51PM 59.5400 50.1110 258° West 447 514 34,000  Level FlightAware
09:52PM 59.5220 49.9590 257° West 447 514 34,000  Level FlightAware
09:53PM 59.5060 49.8240 257° West 447 514 34,000  Level FlightAware
09:54PM 59.4860 49.6550 257° West 447 514 34,000  Level FlightAware
09:54PM 59.4700 49.5200 257° West 447 514 34,000  Level FlightAware
09:55PM 59.4540 49.3850 257° West 447 514 34,000  Level FlightAware
09:56PM 59.4380 49.2510 257° West 447 514 34,000  Level FlightAware
09:56PM 59.4230 49.1160 258° West 447 514 34,000  Level FlightAware
09:57PM 59.4030 48.9480 257° West 447 514 34,000  Level FlightAware
09:58PM 59.3870 48.8130 257° West 447 514 34,000  Level FlightAware
09:59PM 59.3710 48.6790 257° West 447 514 34,000  Level FlightAware
09:59PM 59.3510 48.5110 257° West 447 514 34,000  Level FlightAware
10:00PM 59.3350 48.3760 257° West 447 514 34,000  Level FlightAware
10:01PM 59.3200 48.2420 258° West 447 514 34,000  Level FlightAware
10:01PM 59.3040 48.1080 257° West 447 514 34,000  Level FlightAware
10:04PM 59.2816 47.6118 265° West  Level Estimated
10:05PM 59.2705 47.3812 265° West  Level Estimated
10:06PM 59.2590 47.1507 265° West  Level Estimated
10:07PM 59.2472 46.9205 264° West  Level Estimated
10:08PM 59.2349 46.6904 264° West  Level Estimated
10:09PM 59.2222 46.4604 264° West  Level Estimated
10:09PM 58.9830 45.9330 264° West 457 526 34,000  Level FlightAware
10:11PM 58.9280 45.5710 254° West 459 528 34,000  Level FlightAware
10:13PM 58.9020 45.1385 264° West  Level Estimated
10:14PM 58.8877 44.9111 263° West  Level Estimated
10:15PM 58.8731 44.6839 263° West  Level Estimated
10:15PM 58.7550 44.4960 263° West 462 532 34,000  Level FlightAware
10:16PM 58.7330 44.3630 252° West 462 532 34,000  Level FlightAware
10:17PM 58.7100 44.2290 252° West 462 532 34,000  Level FlightAware
10:17PM 58.6880 44.0960 252° West 462 532 34,000  Level FlightAware
10:19PM 58.6170 43.6730 252° West 461 531 34,000  Level FlightAware
10:21PM 58.5878 43.2642 262° West  Level Estimated
10:22PM 58.5712 43.0395 262° West  Level Estimated
10:23PM 58.5542 42.8150 262° West  Level Estimated
10:24PM 58.5368 42.5907 262° West  Level Estimated
10:25PM 58.5191 42.3666 261° West  Level Estimated
10:26PM 58.5009 42.1428 261° West  Level Estimated
10:27PM 58.4823 41.9192 261° West  Level Estimated
10:28PM 58.4634 41.6958 261° West  Level Estimated
10:29PM 58.4441 41.4727 261° West  Level Estimated
10:30PM 58.4243 41.2498 261° West  Level Estimated
10:30PM 58.1490 41.1330 261° West 470 541 34,000  Level FlightAware
10:30PM 58.1210 40.9920 249° West 470 541 34,000  Level FlightAware
10:31PM 58.0880 40.8250 250° West 471 542 34,000  Level FlightAware
10:32PM 58.0520 40.6490 249° West 471 542 34,000  Level FlightAware
10:32PM 58.0170 40.4750 249° West 471 542 34,000  Level FlightAware
10:33PM 57.9870 40.3260 249° West 470 541 34,000  Level FlightAware
10:34PM 57.9510 40.1520 249° West 472 543 34,000  Level FlightAware
10:35PM 57.9200 40.0030 249° West 471 542 34,000  Level FlightAware
10:35PM 57.8890 39.8530 249° West 472 543 34,000  Level FlightAware
10:36PM 57.8530 39.6820 248° West 473 544 34,000  Level FlightAware
10:37PM 57.8190 39.5260 248° West 471 542 34,000  Level FlightAware
10:37PM 57.7830 39.3560 248° West 472 543 34,000  Level FlightAware
10:38PM 57.7390 39.2160 240° Southwest 477 549 34,000  Level FlightAware
10:39PM 57.6900 39.0930 233° Southwest 478 550 34,000  Level FlightAware
10:39PM 57.6250 38.9410 231° Southwest 478 550 34,000  Level FlightAware
10:40PM 57.5700 38.8090 232° Southwest 480 552 34,000  Level FlightAware
10:41PM 57.5080 38.6630 232° Southwest 484 557 34,000  Level FlightAware
10:42PM 57.4530 38.5320 232° Southwest 489 563 34,000  Level FlightAware
10:42PM 57.3970 38.4010 232° Southwest 489 563 34,000  Level FlightAware
10:43PM 57.3340 38.2550 231° Southwest 488 562 34,000  Level FlightAware
10:44PM 57.2730 38.1080 233° Southwest 487 560 34,000  Level FlightAware
10:44PM 57.2170 37.9730 233° Southwest 490 564 34,000  Level FlightAware
10:45PM 57.1640 37.8460 232° Southwest 490 564 34,000  Level FlightAware
10:46PM 57.1060 37.6860 236° Southwest 484 557 34,000  Level FlightAware
10:46PM 57.0720 37.5370 247° West 480 552 34,000  Level FlightAware
10:47PM 57.0360 37.3630 249° West 483 556 34,000  Level FlightAware
10:48PM 57.0050 37.2110 250° West 483 556 34,000  Level FlightAware
10:49PM 56.9730 37.0600 249° West 485 558 34,000  Level FlightAware
10:49PM 56.9370 36.8880 249° West 484 557 34,000  Level FlightAware
10:50PM 56.9040 36.7330 249° West 484 557 34,000  Level FlightAware
10:51PM 56.8730 36.5850 249° West 484 557 34,000  Level FlightAware
10:51PM 56.8360 36.4120 249° West 484 557 34,000  Level FlightAware
10:52PM 56.8050 36.2600 250° West 483 556 34,000  Level FlightAware
10:53PM 56.7700 36.0920 249° West 483 556 34,000  Level FlightAware
10:53PM 56.7370 35.9390 249° West 481 554 34,000  Level FlightAware
10:54PM 56.7040 35.7860 249° West 481 554 34,000  Level FlightAware
10:55PM 56.6680 35.6170 249° West 479 551 34,000  Level FlightAware
10:56PM 56.6350 35.4690 248° West 479 551 34,000  Level FlightAware
10:56PM 56.5980 35.3000 248° West 478 550 34,000  Level FlightAware
10:57PM 56.5660 35.1520 249° West 478 550 34,000  Level FlightAware
10:58PM 56.5320 35.0030 248° West 478 550 34,000  Level FlightAware
10:58PM 56.4880 34.8420 244° Southwest 481 554 34,000  Level FlightAware
10:59PM 56.4450 34.7080 240° Southwest 479 551 34,000  Level FlightAware
11:00PM 56.3940 34.5510 240° Southwest 479 551 34,000  Level FlightAware
11:00PM 56.3490 34.4120 240° Southwest 479 551 34,000  Level FlightAware
11:01PM 56.3040 34.2730 240° Southwest 480 552 34,000  Level FlightAware
11:02PM 56.2570 34.1270 240° Southwest 479 551 34,000  Level FlightAware
11:03PM 56.2090 33.9850 239° Southwest 478 550 34,000  Level FlightAware
11:03PM 56.1630 33.8490 239° Southwest 476 548 34,000  Level FlightAware
11:04PM 56.1120 33.6970 239° Southwest 476 548 34,000  Level FlightAware
11:05PM 56.0670 33.5640 239° Southwest 475 547 34,000  Level FlightAware
11:05PM 56.0150 33.4120 239° Southwest 474 545 34,000  Level FlightAware
11:06PM 55.9740 33.2920 239° Southwest 472 543 34,000  Level FlightAware
11:07PM 55.9250 33.1460 239° Southwest 470 541 34,000  Level FlightAware
11:07PM 55.8770 33.0050 239° Southwest 469 540 34,000  Level FlightAware
11:08PM 55.8440 32.8550 249° West 464 534 34,000  Level FlightAware
11:09PM 55.8220 32.6980 256° West 462 532 34,000  Level FlightAware
11:09PM 55.8060 32.5690 258° West 462 532 34,000  Level FlightAware
11:10PM 55.7840 32.3970 257° West 463 533 34,000  Level FlightAware
11:11PM 55.7620 32.2280 257° West 463 533 34,000  Level FlightAware
11:12PM 55.7410 32.0760 256° West 462 532 34,000  Level FlightAware
11:13PM 55.7180 31.9080 256° West 462 532 34,000  Level FlightAware
11:13PM 55.6960 31.7450 257° West 462 532 34,000  Level FlightAware
11:14PM 55.6780 31.6200 256° West 462 532 34,000  Level FlightAware
11:15PM 55.6560 31.4640 256° West 462 532 34,000  Level FlightAware
11:15PM 55.6390 31.3390 257° West 462 532 34,000  Level FlightAware
11:16PM 55.6210 31.2140 256° West 462 532 34,000  Level FlightAware
11:17PM 55.6030 31.0890 256° West 462 532 34,000  Level FlightAware
11:17PM 55.5860 30.9640 257° West 462 532 34,000  Level FlightAware
11:18PM 55.5730 30.8710 256° West 462 532 34,000  Level FlightAware
11:19PM 55.5550 30.7460 256° West 462 532 34,000  Level FlightAware
11:19PM 55.5370 30.6210 256° West 462 532 34,000  Level FlightAware
11:20PM 55.5150 30.4660 256° West 462 532 34,000  Level FlightAware
11:21PM 55.4530 30.1100 253° West 457 526 34,000  Level FlightAware
11:21PM 55.4290 29.9490 255° West 457 526 34,000  Level FlightAware
11:22PM 55.4060 29.8010 255° West 457 526 34,000  Level FlightAware
11:23PM 55.3830 29.6590 254° West 456 525 34,000  Level FlightAware
11:24PM 55.3580 29.4990 255° West 456 525 34,000  Level FlightAware
11:24PM 55.3350 29.3550 254° West 459 528 34,000  Level FlightAware
11:25PM 55.3080 29.1920 254° West 458 527 34,000  Level FlightAware
11:26PM 55.2850 29.0480 254° West 458 527 34,000  Level FlightAware
11:26PM 55.2620 28.9090 254° West 458 527 34,000  Level FlightAware
11:27PM 55.2360 28.7510 254° West 459 528 34,000  Level FlightAware
11:28PM 55.2120 28.6070 254° West 459 528 34,000  Level FlightAware
11:28PM 55.1880 28.4650 254° West 459 528 34,000  Level FlightAware
11:29PM 55.1600 28.3030 253° West 461 531 34,000  Level FlightAware
11:30PM 55.1360 28.1610 254° West 462 532 34,000  Level FlightAware
11:31PM 55.1090 28.0030 253° West 464 534 34,000  Level FlightAware
11:31PM 55.0810 27.8400 253° West 464 534 34,000  Level FlightAware
11:32PM 55.0560 27.6970 253° West 462 532 34,000  Level FlightAware
11:33PM 55.0280 27.5400 253° West 462 532 34,000  Level FlightAware
11:33PM 55.0020 27.3970 252° West 461 531 34,000  Level FlightAware
11:34PM 54.9760 27.2520 253° West 461 531 34,000  Level FlightAware
11:35PM 54.9480 27.0960 253° West 461 531 34,000  Level FlightAware
11:35PM 54.9220 26.9550 252° West 461 531 34,000  Level FlightAware
11:36PM 54.8940 26.7990 253° West 462 532 34,000  Level FlightAware
11:37PM 54.8670 26.6560 252° West 461 531 34,000  Level FlightAware
11:38PM 54.8370 26.4950 252° West 459 528 34,000  Level FlightAware
11:38PM 54.8100 26.3540 252° West 462 532 34,000  Level FlightAware
11:39PM 54.7840 26.2160 252° West 462 532 34,000  Level FlightAware
11:40PM 54.7550 26.0630 252° West 463 533 34,000  Level FlightAware
11:40PM 54.7280 25.9220 252° West 461 531 34,000  Level FlightAware
11:41PM 54.7010 25.7830 251° West 462 532 34,000  Level FlightAware
11:42PM 54.6690 25.6240 251° West 461 531 34,000  Level FlightAware
11:42PM 54.6400 25.4840 250° West 460 529 34,000  Level FlightAware
11:43PM 54.6100 25.3350 251° West 460 529 34,000  Level FlightAware
11:44PM 54.5810 25.1950 250° West 459 528 34,000  Level FlightAware
11:45PM 54.5520 25.0580 250° West 460 529 34,000  Level FlightAware
11:45PM 54.5210 24.9060 251° West 457 526 34,000  Level FlightAware
11:46PM 54.4910 24.7640 250° West 455 524 34,000  Level FlightAware
11:47PM 54.4600 24.6190 250° West 454 522 34,000  Level FlightAware
11:47PM 54.4300 24.4770 250° West 452 520 34,000  Level FlightAware
11:48PM 54.4020 24.3460 250° West 453 521 34,000  Level FlightAware
11:49PM 54.3680 24.1920 249° West 453 521 34,000  Level FlightAware
11:49PM 54.3390 24.0580 250° West 451 519 34,000  Level FlightAware
11:50PM 54.3060 23.9070 250° West 449 517 34,000  Level FlightAware
11:51PM 54.2770 23.7740 250° West 449 517 34,000  Level FlightAware
11:52PM 54.2470 23.6410 249° West 449 517 34,000  Level FlightAware
11:52PM 54.2170 23.5090 249° West 449 517 34,000  Level FlightAware
11:53PM 54.1850 23.3660 249° West 452 520 34,000  Level FlightAware
11:54PM 54.1540 23.2320 248° West 455 524 34,000  Level FlightAware
11:54PM 54.1210 23.0770 250° West 454 522 34,000  Level FlightAware
11:55PM 54.0940 22.9430 251° West 456 525 34,000  Level FlightAware
11:56PM 54.0630 22.7900 251° West 461 531 34,000  Level FlightAware
11:56PM 54.0350 22.6550 251° West 460 529 34,000  Level FlightAware
11:57PM 54.0070 22.5190 251° West 459 528 34,000  Level FlightAware
11:58PM 53.9750 22.3620 251° West 458 527 34,000  Level FlightAware
11:59PM 53.9460 22.2280 250° West 458 527 34,000  Level FlightAware
11:59PM 53.9170 22.0920 250° West 457 526 34,000  Level FlightAware
12:00AM 53.8860 21.9460 250° West 454 522 34,000  Level FlightAware
12:01AM 53.8580 21.8130 250° West 454 522 34,000  Level FlightAware
12:01AM 53.8240 21.6570 250° West 458 527 34,000  Level FlightAware
12:02AM 53.7950 21.5250 250° West 457 526 34,000  Level FlightAware
12:03AM 53.7660 21.3930 250° West 457 526 34,000  Level FlightAware
12:03AM 53.7330 21.2430 250° West 456 525 34,000  Level FlightAware
12:04AM 53.7040 21.1120 250° West 456 525 34,000  Level FlightAware
12:05AM 53.6700 20.9590 249° West 456 525 34,000  Level FlightAware
12:06AM 53.6390 20.8250 249° West 457 526 34,000  Level FlightAware
12:06AM 53.6090 20.6920 249° West 460 529 34,000  Level FlightAware
12:07AM 53.5750 20.5440 249° West 463 533 34,000  Level FlightAware
12:08AM 53.5450 20.4130 249° West 463 533 34,000  Level FlightAware
12:08AM 53.5140 20.2770 249° West 463 533 34,000  Level FlightAware
12:09AM 53.4780 20.1240 248° West 462 532 34,000  Level FlightAware
12:10AM 53.4440 19.9780 249° West 461 531 34,000  Level FlightAware
12:10AM 53.4120 19.8450 248° West 458 527 34,000  Level FlightAware
12:11AM 53.3770 19.6950 249° West 456 525 34,000  Level FlightAware
12:12AM 53.3450 19.5640 248° West 456 525 34,000  Level FlightAware
12:13AM 53.3100 19.4190 248° West 454 522 34,000  Level FlightAware
12:13AM 53.2790 19.2900 248° West 455 524 34,000  Level FlightAware
12:14AM 53.2480 19.1600 248° West 457 526 34,000  Level FlightAware
12:15AM 53.2110 19.0110 248° West 458 527 34,000  Level FlightAware
12:15AM 53.1790 18.8810 248° West 457 526 34,000  Level FlightAware
12:16AM 53.1430 18.7380 247° West 457 526 34,000  Level FlightAware
12:17AM 53.1110 18.6070 248° West 457 526 34,000  Level FlightAware
12:17AM 53.0780 18.4790 247° West 457 526 34,000  Level FlightAware
12:18AM 53.0420 18.3330 248° West 458 527 34,000  Level FlightAware
12:19AM 53.0070 18.1990 247° West 456 525 34,000  Level FlightAware
12:20AM 52.9740 18.0710 247° West 457 526 34,000  Level FlightAware
12:20AM 52.9380 17.9290 247° West 456 525 34,000  Level FlightAware
12:21AM 52.9050 17.8010 247° West 458 527 34,000  Level FlightAware
12:22AM 52.8720 17.6760 246° West 459 528 34,000  Level FlightAware
12:22AM 52.8330 17.5260 247° West 461 531 34,000  Level FlightAware
12:23AM 52.7990 17.3990 246° West 459 528 34,000  Level FlightAware
12:24AM 52.7620 17.2580 247° West 457 526 34,000  Level FlightAware
12:24AM 52.7280 17.1320 246° West 456 525 34,000  Level FlightAware
12:25AM 52.6880 16.9830 246° West 455 524 34,000  Level FlightAware
12:26AM 52.6550 16.8580 247° West 455 524 34,000  Level FlightAware
12:27AM 52.6200 16.7300 246° West 456 525 34,000  Level FlightAware
12:27AM 52.5820 16.5930 246° West 454 522 34,000  Level FlightAware
12:28AM 52.5470 16.4640 246° West 456 525 34,000  Level FlightAware
12:29AM 52.5090 16.3260 246° West 457 526 34,000  Level FlightAware
12:29AM 52.4720 16.1930 245° Southwest 459 528 34,000  Level FlightAware
12:30AM 52.4360 16.0660 245° Southwest 460 529 34,000  Level FlightAware
12:31AM 52.3980 15.9300 245° Southwest 461 531 34,000  Level FlightAware
12:31AM 52.3620 15.8040 245° Southwest 460 529 34,000  Level FlightAware
12:32AM 52.3210 15.6590 245° Southwest 459 528 34,000  Level FlightAware
12:33AM 52.2870 15.5400 245° Southwest 459 528 34,000  Level FlightAware
12:34AM 52.2490 15.4080 245° Southwest 461 531 34,000  Level FlightAware
12:34AM 52.2080 15.2660 245° Southwest 461 531 34,000  Level FlightAware
12:35AM 52.1730 15.1470 244° Southwest 460 529 34,000  Level FlightAware
12:36AM 52.1330 15.0100 245° Southwest 462 532 34,000  Level FlightAware
12:36AM 52.0940 14.8760 245° Southwest 463 533 34,000  Level FlightAware
12:37AM 52.0560 14.7490 244° Southwest 462 532 34,000  Level FlightAware
12:38AM 52.0240 14.6300 246° West 464 534 34,000  Level FlightAware
12:38AM 51.9840 14.4810 246° West 462 532 34,000  Level FlightAware
12:39AM 51.9500 14.3580 246° West 458 527 34,000  Level FlightAware
12:40AM 51.9100 14.2160 246° West 458 527 34,000  Level FlightAware
12:41AM 51.8750 14.0900 246° West 456 525 34,000  Level FlightAware
12:41AM 51.8410 13.9670 246° West 457 526 34,000  Level FlightAware
12:42AM 51.7990 13.8180 246° West 459 528 34,000  Level FlightAware
12:43AM 51.7670 13.7050 245° Southwest 460 529 34,000  Level FlightAware
12:43AM 51.7250 13.5600 245° Southwest 462 532 34,000  Level FlightAware
12:44AM 51.6900 13.4380 245° Southwest 463 533 34,000  Level FlightAware
12:45AM 51.6500 13.2980 245° Southwest 462 532 34,000  Level FlightAware
12:45AM 51.6160 13.1810 245° Southwest 459 528 34,000  Level FlightAware
12:46AM 51.5800 13.0560 245° Southwest 456 525 34,000  Level FlightAware
12:47AM 51.5440 12.9330 245° Southwest 456 525 34,000  Level FlightAware
12:47AM 51.5060 12.8050 245° Southwest 456 525 34,000  Level FlightAware
12:48AM 51.4600 12.6500 245° Southwest 457 526 34,000 -360 Level FlightAware
12:49AM 51.4230 12.5310 244° Southwest 453 521 33,500 -840 Descending FlightAware
12:50AM 51.3880 12.4320 240° Southwest 452 520 33,000 -1,320 Descending FlightAware
12:50AM 51.3370 12.2920 240° Southwest 436 502 31,700 -1,800 Descending FlightAware
12:51AM 51.2980 12.1850 240° Southwest 425 489 30,300 -2,160 Descending FlightAware
12:52AM 51.2530 12.0620 240° Southwest 415 478 28,700 -2,160 Descending FlightAware
12:52AM 51.2150 11.9560 240° Southwest 408 470 27,300 -2,040 Descending FlightAware
12:53AM 51.1820 11.8600 241° Southwest 399 459 26,000 -1,980 Descending FlightAware
12:54AM 51.1430 11.7390 243° Southwest 386 444 24,500 -1,920 Descending FlightAware
12:54AM 51.1170 11.6520 245° Southwest 379 436 23,500 -1,560 Descending FlightAware
12:55AM 51.0720 11.4970 245° Southwest 365 420 22,100 -900 Descending FlightAware
12:56AM 51.0390 11.3880 244° Southwest 369 425 22,000 -120 Descending FlightAware
12:57AM 51.0110 11.2940 245° Southwest 369 425 22,000  Level FlightAware
12:58AM 50.9800 11.1930 244° Southwest 371 427 22,000  Level FlightAware
12:58AM 50.9460 11.0830 244° Southwest 370 426 22,000  Level FlightAware
12:59AM 50.9210 11.0000 244° Southwest 371 427 22,000  Level FlightAware
01:00AM 50.8830 10.8760 244° Southwest 370 426 22,000 -420 Level FlightAware
01:00AM 50.8540 10.7820 244° Southwest 375 432 21,400 -1,140 Descending FlightAware
01:01AM 50.8240 10.6850 244° Southwest 364 419 20,500 -1,140 Descending FlightAware
01:02AM 50.7930 10.5840 244° Southwest 359 413 19,800 -1,200 Descending FlightAware
01:02AM 50.7620 10.4840 244° Southwest 356 410 18,800 -1,680 Descending FlightAware
01:03AM 50.7300 10.3830 243° Southwest 342 394 17,500 -1,440 Descending FlightAware
01:04AM 50.7010 10.2880 244° Southwest 336 387 16,700 -1,500 Descending FlightAware
01:05AM 50.6710 10.1960 243° Southwest 334 384 15,400 -1,920 Descending FlightAware
01:05AM 50.6440 10.1090 244° Southwest 332 382 14,200 -1,740 Descending FlightAware
01:06AM 50.6140 10.0160 243° Southwest 323 372 13,000 -1,680 Descending FlightAware
01:07AM 50.5890 9.9360 244° Southwest 318 366 12,000 -1,440 Descending FlightAware
01:07AM 50.5540 9.8270 243° Southwest 321 369 11,000 -780 Descending FlightAware
01:08AM 50.5350 9.7680 243° Southwest 311 358 11,000  Level FlightAware
01:09AM 50.5030 9.6680 243° Southwest 297 342 11,000  Level FlightAware
01:09AM 50.4780 9.5930 242° Southwest 292 336 11,000 -60 Level FlightAware
01:11AM 50.4190 9.4790 231° Southwest 296 341 10,900 -420 Descending FlightAware
01:11AM 50.3870 9.4210 229° Southwest 276 318 10,300 -720 Descending FlightAware
01:12AM 50.3550 9.3630 229° Southwest 252 290 10,000 -960 Descending FlightAware
01:12AM 50.3350 9.3290 227° Southwest 244 281 9,300 -1,560 Descending FlightAware
01:13AM 50.3030 9.2710 229° Southwest 238 274 8,200 -1,140 Descending FlightAware
01:13AM 50.2910 9.2490 230° Southwest 232 267 8,100 -1,140 Descending FlightAware
01:14AM 50.2650 9.2040 228° Southwest 218 251 7,200 -1,440 Descending FlightAware
01:14AM 50.2460 9.1690 230° Southwest 216 249 6,600 -1,140 Descending FlightAware
01:15AM 50.2320 9.1440 229° Southwest 206 237 6,200 -900 Descending FlightAware
01:15AM 50.2100 9.1060 228° Southwest 203 234 5,800 -900 Descending FlightAware
01:16AM 50.1960 9.0810 229° Southwest 203 234 5,400 -900 Descending FlightAware
01:16AM 50.1750 9.0440 228° Southwest 213 245 5,000 -480 Descending FlightAware
01:17AM 50.1600 9.0120 234° Southwest 201 231 5,000  Level FlightAware
01:17AM 50.1540 8.9920 245° Southwest 201 231 5,000  Level FlightAware
01:17AM 50.1450 8.9520 251° West 194 223 5,000  Level FlightAware
01:18AM 50.1360 8.9130 250° West 185 213 5,000  Level FlightAware
01:18AM 50.1300 8.8880 249° West 188 216 5,000  Level FlightAware
01:19AM 50.1200 8.8450 250° West 168 193 5,000 -420 Level FlightAware
01:19AM 50.1130 8.8180 248° West 165 190 4,600 -1,140 Descending FlightAware
01:20AM 50.1060 8.7840 252° West 164 189 4,000 -1,140 Descending FlightAware
01:20AM 50.0990 8.7570 248° West 152 175 3,600 -780 Descending FlightAware
01:21AM 50.0920 8.7290 249° West 138 159 3,300 -720 Descending FlightAware
01:21AM 50.0860 8.7020 251° West 131 151 2,900 -900 Descending FlightAware
01:22AM 50.0810 8.6790 251° West 130 150 2,500 -900 Descending FlightAware
01:22AM 50.0780 8.6700 243° Southwest 129 148 2,300 -720 Descending FlightAware
01:22AM 50.0720 8.6430 251° West 130 150 2,000 -780 Descending FlightAware
01:23AM 50.0660 8.6190 249° West 127 146 1,600 -780 Descending FlightAware
01:23AM 50.0600 8.5940 250° West 133 153 1,300 -720 Descending FlightAware
01:24AM 50.0550 8.5740 249° West 138 159 1,000 -420 Descending FlightAware
01:24AM 50.0510 8.5530 253° West 138 159 1,000  Level FlightAware
01:27AM 50.0264 8.5431 194° South  Level Estimated